Time;durP1;ratioP1;P1;durP2;ratioP2;P2;SDS_P1;SDS_P2;PMS_P1;PMS_P2;Temp;Humidity;BMP_temperature;BMP_pressure;BME280_temperature;BME280_humidity;BME280_pressure;Samples;Min_cycle;Max_cycle;Signal;HPM_P1;HPM_P2
2021/05/12 00:00:17;;;;;;;7.03;1.90;;;28.30;28.80;;;;;;5098027;28;20470;-67
2021/05/12 00:02:43;;;;;;;5.07;1.38;;;28.10;29.30;;;;;;5092055;28;20082;-67
2021/05/12 00:05:10;;;;;;;9.43;1.73;;;28.10;29.00;;;;;;5096954;28;20028;-67
2021/05/12 00:07:37;;;;;;;7.57;1.92;;;28.10;29.40;;;;;;5097052;28;20055;-67
2021/05/12 00:10:09;;;;;;;4.55;1.15;;;28.20;28.30;;;;;;5096811;28;20024;-67
2021/05/12 00:12:35;;;;;;;;;;;28.30;27.50;;;;;;5095663;28;20031;-67
2021/05/12 00:15:04;;;;;;;5.95;1.73;;;28.20;27.70;;;;;;5103746;28;20360;-68
2021/05/12 00:17:31;;;;;;;6.68;1.27;;;28.10;28.50;;;;;;5076491;28;20035;-68
2021/05/12 00:20:00;;;;;;;9.13;2.20;;;28.00;28.40;;;;;;5080282;28;20033;-68
2021/05/12 00:22:47;;;;;;;12.80;2.10;;;28.10;28.50;;;;;;5088823;28;20038;-68
2021/05/12 00:25:14;;;;;;;4.68;1.73;;;28.00;28.90;;;;;;5096545;28;20346;-68
2021/05/12 00:27:41;;;;;;;7.53;1.80;;;28.00;28.90;;;;;;5092473;28;20048;-68
2021/05/12 00:30:11;;;;;;;9.30;1.30;;;27.70;29.30;;;;;;5090766;28;20454;-68
2021/05/12 00:32:38;;;;;;;6.10;1.38;;;27.80;28.80;;;;;;5098788;28;20073;-68
2021/05/12 00:35:05;;;;;;;6.90;1.45;;;27.90;28.00;;;;;;5096335;28;20055;-68
2021/05/12 00:37:32;;;;;;;7.80;1.58;;;28.10;27.70;;;;;;5078829;28;20442;-68
2021/05/12 00:39:58;;;;;;;10.35;1.90;;;28.10;27.40;;;;;;5096083;28;20099;-67
2021/05/12 00:42:32;;;;;;;8.60;1.80;;;28.00;27.40;;;;;;5094719;28;20056;-67
2021/05/12 00:44:59;;;;;;;8.02;1.17;;;28.00;27.40;;;;;;5096141;28;20416;-67
2021/05/12 00:47:31;;;;;;;8.55;1.80;;;27.90;27.50;;;;;;5095635;28;20028;-67
2021/05/12 00:49:58;;;;;;;7.55;1.90;;;27.80;27.60;;;;;;5095323;28;20035;-67
2021/05/12 00:52:26;;;;;;;8.32;1.10;;;27.70;27.80;;;;;;5097903;28;20040;-67
2021/05/12 00:54:53;;;;;;;6.63;1.42;;;27.70;28.00;;;;;;5083167;28;20070;-67
2021/05/12 00:57:21;;;;;;;6.82;1.83;;;27.60;27.50;;;;;;5079859;28;20354;-67
2021/05/12 00:59:50;;;;;;;8.88;2.40;;;27.60;27.40;;;;;;5082037;28;20023;-67
2021/05/12 01:02:16;;;;;;;4.38;1.27;;;27.50;27.70;;;;;;5092797;28;20055;-67
2021/05/12 01:04:43;;;;;;;5.05;1.88;;;27.30;27.80;;;;;;5079844;28;20040;-67
2021/05/12 01:07:09;;;;;;;5.50;1.40;;;27.40;28.10;;;;;;5089861;28;20419;-67
2021/05/12 01:09:36;;;;;;;10.35;3.25;;;27.20;27.80;;;;;;5089401;28;20025;-67
2021/05/12 01:12:03;;;;;;;12.02;1.48;;;27.20;28.30;;;;;;5094828;28;20031;-67
2021/05/12 01:14:30;;;;;;;5.80;1.60;;;27.10;28.20;;;;;;5080611;28;20022;-67
2021/05/12 01:16:57;;;;;;;4.32;1.65;;;27.10;28.00;;;;;;5084318;28;20027;-67
2021/05/12 01:19:24;;;;;;;6.82;1.85;;;27.00;28.30;;;;;;5095250;28;20016;-68
2021/05/12 01:21:50;;;;;;;4.03;0.90;;;27.00;28.20;;;;;;5089478;28;20490;-68
2021/05/12 01:24:17;;;;;;;6.07;1.40;;;26.90;28.40;;;;;;5093003;28;20032;-67
2021/05/12 01:26:44;;;;;;;4.45;1.73;;;26.70;28.70;;;;;;5097645;28;20020;-67
2021/05/12 01:29:10;;;;;;;5.03;1.33;;;26.60;28.70;;;;;;5095335;28;20024;-68
2021/05/12 01:31:43;;;;;;;7.00;1.38;;;26.50;29.30;;;;;;5103489;28;20085;-67
2021/05/12 01:34:13;;;;;;;;;;;26.50;29.10;;;;;;5095847;28;20473;-67
2021/05/12 01:36:40;;;;;;;3.40;0.98;;;26.40;29.40;;;;;;5095331;28;20346;-67
2021/05/12 01:39:06;;;;;;;4.05;1.60;;;26.40;29.20;;;;;;5077369;28;20356;-67
2021/05/12 01:41:33;;;;;;;11.57;1.83;;;26.20;29.30;;;;;;5094990;28;20035;-67
2021/05/12 01:44:01;;;;;;;8.05;2.08;;;26.10;29.50;;;;;;5086218;28;20085;-67
2021/05/12 01:46:28;;;;;;;6.07;1.15;;;26.10;29.00;;;;;;5086609;28;20032;-66
2021/05/12 01:48:54;;;;;;;8.02;1.63;;;26.00;29.20;;;;;;5088709;28;20120;-67
2021/05/12 01:51:20;;;;;;;4.63;1.13;;;25.70;29.10;;;;;;5091536;28;20419;-68
2021/05/12 01:53:47;;;;;;;6.45;1.92;;;25.70;29.10;;;;;;5090847;28;20389;-68
2021/05/12 01:56:13;;;;;;;6.15;2.03;;;25.80;29.10;;;;;;5090186;28;20328;-68
2021/05/12 01:58:40;;;;;;;6.50;1.55;;;25.60;29.00;;;;;;5094661;28;20027;-67
2021/05/12 02:01:07;;;;;;;6.45;1.48;;;25.60;29.20;;;;;;5095259;28;20045;-67
2021/05/12 02:03:34;;;;;;;7.97;2.22;;;25.70;28.90;;;;;;5094040;28;20085;-66
2021/05/12 02:06:00;;;;;;;6.00;2.05;;;25.60;29.10;;;;;;5090875;28;20051;-67
2021/05/12 02:08:28;;;;;;;6.43;2.13;;;25.60;29.00;;;;;;5084996;28;20055;-67
2021/05/12 02:10:58;;;;;;;6.80;2.30;;;25.30;28.90;;;;;;5086180;28;20148;-66
2021/05/12 02:13:26;;;;;;;8.23;1.92;;;25.10;29.10;;;;;;5092344;28;20095;-67
2021/05/12 02:15:53;;;;;;;6.55;1.15;;;24.90;29.50;;;;;;5082143;28;20048;-67
2021/05/12 02:18:20;;;;;;;11.55;2.10;;;24.50;30.00;;;;;;5107801;28;20038;-67
2021/05/12 02:20:46;;;;;;;7.35;1.90;;;24.50;30.30;;;;;;5099683;28;20509;-68
2021/05/12 02:23:15;;;;;;;7.32;2.20;;;24.20;30.30;;;;;;5095972;28;20023;-67
2021/05/12 02:25:42;;;;;;;8.82;1.42;;;24.40;30.40;;;;;;5097751;28;20090;-68
2021/05/12 02:28:10;;;;;;;3.85;2.00;;;24.50;30.50;;;;;;5064278;28;20373;-67
2021/05/12 02:30:37;;;;;;;4.68;1.40;;;24.40;30.20;;;;;;5093391;28;20354;-67
2021/05/12 02:33:05;;;;;;;7.18;2.40;;;24.40;30.80;;;;;;5094212;28;20016;-67
2021/05/12 02:35:32;;;;;;;4.68;1.80;;;24.30;30.70;;;;;;5092520;28;20028;-67
2021/05/12 02:37:59;;;;;;;3.47;1.40;;;24.30;30.50;;;;;;5087456;28;20039;-67
2021/05/12 02:40:27;;;;;;;13.63;3.10;;;24.30;30.20;;;;;;5090217;28;20024;-67
2021/05/12 02:42:54;;;;;;;12.93;3.75;;;24.00;35.50;;;;;;5090423;28;20056;-67
2021/05/12 02:45:21;;;;;;;16.52;4.43;;;23.80;36.40;;;;;;5086322;28;20024;-68
2021/05/12 02:48:00;;;;;;;15.85;2.97;;;23.60;37.70;;;;;;5075099;28;20459;-67
2021/05/12 02:50:38;;;;;;;11.63;3.03;;;23.30;38.30;;;;;;5086689;28;20139;-68
2021/05/12 02:53:06;;;;;;;11.68;3.65;;;23.20;39.10;;;;;;5097894;28;20455;-67
2021/05/12 02:55:34;;;;;;;11.88;3.75;;;22.90;40.10;;;;;;5092031;28;20040;-68
2021/05/12 02:58:02;;;;;;;19.63;4.10;;;22.70;40.50;;;;;;5093863;28;20012;-68
2021/05/12 03:00:29;;;;;;;9.45;3.42;;;22.50;40.00;;;;;;5090223;28;20089;-68
2021/05/12 03:02:56;;;;;;;7.18;2.22;;;22.50;39.70;;;;;;5093249;28;20012;-67
2021/05/12 03:05:23;;;;;;;9.93;3.78;;;22.40;40.10;;;;;;5095384;28;20020;-68
2021/05/12 03:07:50;;;;;;;9.45;2.60;;;22.30;39.90;;;;;;5082681;28;20024;-68
2021/05/12 03:10:19;;;;;;;11.38;2.70;;;22.20;40.10;;;;;;5102149;28;20039;-68
2021/05/12 03:12:46;;;;;;;9.30;3.78;;;22.00;40.80;;;;;;5093836;28;20490;-68
2021/05/12 03:15:15;;;;;;;8.88;3.30;;;21.80;40.70;;;;;;5096070;28;20099;-67
2021/05/12 03:17:42;;;;;;;15.85;3.33;;;21.50;42.70;;;;;;5071053;28;20038;-67
2021/05/12 03:20:09;;;;;;;12.90;3.55;;;20.90;44.10;;;;;;5079266;28;20024;-67
2021/05/12 03:22:36;;;;;;;12.20;2.85;;;20.90;42.20;;;;;;5092494;28;20103;-67
2021/05/12 03:25:04;;;;;;;7.75;2.83;;;20.80;43.70;;;;;;5096610;28;20028;-67
2021/05/12 03:27:30;;;;;;;10.27;3.15;;;20.60;44.30;;;;;;5094410;28;20043;-67
2021/05/12 03:29:57;;;;;;;9.82;2.83;;;20.50;44.00;;;;;;5107702;28;20031;-67
2021/05/12 03:32:23;;;;;;;13.20;4.13;;;20.40;43.60;;;;;;5090383;28;20024;-67
2021/05/12 03:34:50;;;;;;;10.75;3.30;;;20.30;43.90;;;;;;5082407;28;20031;-68
2021/05/12 03:37:17;;;;;;;12.30;3.78;;;20.20;43.90;;;;;;5088313;28;20035;-67
2021/05/12 03:39:43;;;;;;;7.57;3.25;;;20.10;43.40;;;;;;5105117;28;20475;-67
2021/05/12 03:42:10;;;;;;;9.77;3.28;;;20.00;43.40;;;;;;5099652;28;20026;-67
2021/05/12 03:44:36;;;;;;;9.63;2.17;;;19.90;44.40;;;;;;5105157;28;20054;-68
2021/05/12 03:47:03;;;;;;;7.03;2.50;;;19.80;44.00;;;;;;5104539;28;20454;-68
2021/05/12 03:49:30;;;;;;;7.93;2.15;;;19.70;43.50;;;;;;5111441;28;20062;-68
2021/05/12 03:51:57;;;;;;;6.13;2.58;;;19.70;44.30;;;;;;5103253;28;20028;-68
2021/05/12 03:54:24;;;;;;;9.77;3.95;;;19.60;43.70;;;;;;5096892;28;20063;-68
2021/05/12 03:56:50;;;;;;;7.43;2.95;;;19.50;44.40;;;;;;5097457;28;20075;-68
2021/05/12 03:59:17;;;;;;;8.52;2.67;;;19.40;43.50;;;;;;5097357;28;20091;-68
2021/05/12 04:01:43;;;;;;;8.40;3.78;;;19.30;44.40;;;;;;5100822;28;20081;-69
2021/05/12 04:04:11;;;;;;;12.55;3.35;;;19.30;44.90;;;;;;5097097;28;20053;-68
2021/05/12 04:06:39;;;;;;;7.85;2.95;;;19.20;44.60;;;;;;5096873;28;20447;-69
2021/05/12 04:09:06;;;;;;;10.57;2.83;;;19.00;46.90;;;;;;5107551;28;20394;-69
2021/05/12 04:11:32;;;;;;;7.22;2.83;;;19.00;46.40;;;;;;5097104;28;20024;-69
2021/05/12 04:13:59;;;;;;;9.85;3.35;;;18.90;46.10;;;;;;5096691;28;20043;-68
2021/05/12 04:16:25;;;;;;;11.70;3.88;;;18.80;47.70;;;;;;5097229;28;20020;-69
2021/05/12 04:18:52;;;;;;;7.35;2.97;;;18.70;47.00;;;;;;5097180;28;20023;-69
2021/05/12 04:21:18;;;;;;;14.38;3.67;;;18.60;46.60;;;;;;5097213;28;20020;-69
2021/05/12 04:23:45;;;;;;;10.82;3.85;;;18.50;48.20;;;;;;5096558;28;20024;-69
2021/05/12 04:26:11;;;;;;;9.20;4.18;;;18.40;48.50;;;;;;5097729;28;20048;-69
2021/05/12 04:28:38;;;;;;;15.20;3.38;;;18.30;48.10;;;;;;5105640;28;20035;-68
2021/05/12 04:31:04;;;;;;;8.65;2.83;;;18.30;46.70;;;;;;5096273;28;20031;-69
2021/05/12 04:33:31;;;;;;;7.60;3.15;;;18.30;46.60;;;;;;5096255;28;20049;-69
2021/05/12 04:35:58;;;;;;;14.40;4.38;;;18.30;47.00;;;;;;5091928;28;20027;-68
2021/05/12 04:38:24;;;;;;;15.63;4.95;;;18.20;47.20;;;;;;5078726;28;20035;-68
2021/05/12 04:40:51;;;;;;;11.38;3.95;;;18.10;48.50;;;;;;5079758;28;20020;-68
2021/05/12 04:43:17;;;;;;;8.32;3.75;;;18.00;48.00;;;;;;5085683;28;20115;-68
2021/05/12 04:45:43;;;;;;;6.43;2.75;;;18.00;48.50;;;;;;5078794;28;20024;-68
2021/05/12 04:48:10;;;;;;;10.73;3.53;;;17.90;47.70;;;;;;5105206;28;20066;-68
2021/05/12 04:50:36;;;;;;;16.65;5.13;;;17.80;48.90;;;;;;5099332;28;20027;-69
2021/05/12 04:53:03;;;;;;;9.25;3.13;;;17.80;48.10;;;;;;5090755;28;20027;-69
2021/05/12 04:55:30;;;;;;;12.30;3.70;;;17.70;49.00;;;;;;5103888;28;20031;-69
2021/05/12 04:57:56;;;;;;;11.40;3.33;;;17.60;49.90;;;;;;5100215;28;20531;-68
2021/05/12 05:00:23;;;;;;;12.20;2.80;;;17.60;48.50;;;;;;5083537;28;20088;-68
2021/05/12 05:02:50;;;;;;;7.47;3.55;;;17.50;49.90;;;;;;5096921;28;20024;-68
2021/05/12 05:05:17;;;;;;;7.22;2.50;;;17.50;48.50;;;;;;5102080;28;20032;-68
2021/05/12 05:07:45;;;;;;;5.85;2.08;;;17.40;49.10;;;;;;5107648;28;20066;-68
2021/05/12 05:10:12;;;;;;;5.80;2.63;;;17.40;48.30;;;;;;5104784;28;20202;-68
2021/05/12 05:12:38;;;;;;;9.35;3.08;;;17.30;49.50;;;;;;5095652;28;20504;-68
2021/05/12 05:15:05;;;;;;;10.23;4.00;;;17.30;48.00;;;;;;5106945;28;20446;-68
2021/05/12 05:17:32;;;;;;;4.80;2.38;;;17.30;48.90;;;;;;5110793;28;20111;-68
2021/05/12 05:19:59;;;;;;;9.40;2.60;;;17.20;48.30;;;;;;5111257;28;20081;-68
2021/05/12 05:22:27;;;;;;;8.00;3.20;;;17.20;49.10;;;;;;5094321;28;20107;-68
2021/05/12 05:24:55;;;;;;;8.18;2.38;;;17.20;49.10;;;;;;5099241;28;20381;-68
2021/05/12 05:27:23;;;;;;;9.27;2.60;;;17.10;49.10;;;;;;5095160;28;20051;-68
2021/05/12 05:29:50;;;;;;;9.90;2.78;;;17.00;49.40;;;;;;5089989;28;20470;-68
2021/05/12 05:32:17;;;;;;;5.65;2.92;;;17.00;50.10;;;;;;5083721;28;20028;-68
2021/05/12 05:34:43;;;;;;;7.05;2.85;;;16.90;49.30;;;;;;5104697;28;20363;-68
2021/05/12 05:37:10;;;;;;;6.10;2.25;;;16.90;49.40;;;;;;5086727;28;20067;-67
2021/05/12 05:39:36;;;;;;;5.15;2.28;;;16.80;49.50;;;;;;5107470;28;20024;-68
2021/05/12 05:42:07;;;;;;;4.85;2.33;;;16.80;49.40;;;;;;5077868;28;20095;-68
2021/05/12 05:44:35;;;;;;;4.03;2.55;;;16.80;48.80;;;;;;5106241;28;20398;-68
2021/05/12 05:47:03;;;;;;;6.00;2.38;;;16.80;49.40;;;;;;5099069;28;20097;-67
2021/05/12 05:49:29;;;;;;;5.28;2.58;;;16.80;47.10;;;;;;5080503;28;20354;-68
2021/05/12 05:51:56;;;;;;;8.35;2.38;;;16.90;44.00;;;;;;5098293;28;20362;-68
2021/05/12 05:54:23;;;;;;;11.05;3.17;;;16.90;45.00;;;;;;5102763;28;20020;-67
2021/05/12 05:56:49;;;;;;;14.70;3.85;;;16.90;47.60;;;;;;5096015;28;20039;-68
2021/05/12 05:59:16;;;;;;;11.43;3.00;;;16.80;48.20;;;;;;5093670;28;20094;-68
2021/05/12 06:01:42;;;;;;;10.27;2.63;;;16.60;48.40;;;;;;5096643;28;20095;-68
2021/05/12 06:04:08;;;;;;;8.52;2.83;;;16.60;48.10;;;;;;5109348;28;20023;-68
2021/05/12 06:06:35;;;;;;;9.00;3.25;;;16.60;43.90;;;;;;5094818;28;20115;-68
2021/05/12 06:09:03;;;;;;;14.85;4.32;;;16.60;44.60;;;;;;5082794;28;20024;-67
2021/05/12 06:11:30;;;;;;;12.35;3.80;;;16.50;48.70;;;;;;5084342;28;20027;-68
2021/05/12 06:13:56;;;;;;;14.27;3.15;;;16.50;48.80;;;;;;5094431;28;20008;-68
2021/05/12 06:16:25;;;;;;;10.25;2.97;;;16.40;48.60;;;;;;5097691;28;20024;-68
2021/05/12 06:18:52;;;;;;;11.93;2.75;;;16.30;49.00;;;;;;5083919;28;20016;-68
2021/05/12 06:21:19;;;;;;;6.47;2.72;;;16.30;48.10;;;;;;5075877;28;20020;-68
2021/05/12 06:23:46;;;;;;;7.07;2.03;;;16.30;49.30;;;;;;5092818;28;20028;-68
2021/05/12 06:26:19;;;;;;;6.47;2.78;;;16.30;45.30;;;;;;5087581;28;20039;-68
2021/05/12 06:28:46;;;;;;;11.90;3.13;;;16.40;46.30;;;;;;5107132;28;20396;-68
2021/05/12 06:31:13;;;;;;;17.45;4.22;;;16.40;49.10;;;;;;5081918;28;20032;-67
2021/05/12 06:33:44;;;;;;;7.78;2.88;;;16.30;49.30;;;;;;5108949;28;20087;-67
2021/05/12 06:36:11;;;;;;;7.65;2.75;;;16.20;50.10;;;;;;5106342;28;20031;-67
2021/05/12 06:38:38;;;;;;;6.75;2.25;;;16.10;50.60;;;;;;5080496;28;20458;-68
2021/05/12 06:41:05;;;;;;;5.80;2.60;;;16.10;51.00;;;;;;5107815;28;20035;-67
2021/05/12 06:43:31;;;;;;;9.55;2.63;;;16.10;49.50;;;;;;5092847;28;20337;-68
2021/05/12 06:45:58;;;;;;;6.90;2.17;;;16.10;48.10;;;;;;5096465;28;20028;-67
2021/05/12 06:48:25;;;;;;;7.90;2.65;;;16.20;50.10;;;;;;5101425;28;20451;-68
2021/05/12 06:50:53;;;;;;;4.45;1.80;;;16.10;50.40;;;;;;5094286;28;20119;-67
2021/05/12 06:53:28;;;;;;;3.88;2.03;;;16.00;51.20;;;;;;5091908;28;20103;-68
2021/05/12 06:55:56;;;;;;;12.13;3.65;;;16.10;49.60;;;;;;5098857;28;20034;-68
2021/05/12 06:58:23;;;;;;;5.78;2.50;;;16.10;49.70;;;;;;5104040;28;20032;-67
2021/05/12 07:00:51;;;;;;;5.28;2.65;;;16.10;46.20;;;;;;5110587;28;20023;-68
2021/05/12 07:03:22;;;;;;;9.00;2.83;;;16.10;47.10;;;;;;5101737;28;20049;-67
2021/05/12 07:05:51;;;;;;;6.38;3.15;;;16.10;47.00;;;;;;5119127;28;20020;-68
2021/05/12 07:08:17;;;;;;;11.15;3.00;;;16.10;48.70;;;;;;5106774;28;20035;-68
2021/05/12 07:10:44;;;;;;;5.93;3.08;;;16.10;49.50;;;;;;5098323;28;20024;-68
2021/05/12 07:13:10;;;;;;;6.00;1.92;;;16.10;49.50;;;;;;5083238;28;20026;-68
2021/05/12 07:15:37;;;;;;;11.05;2.53;;;16.00;48.00;;;;;;5098873;28;20455;-67
2021/05/12 07:18:03;;;;;;;6.32;2.28;;;16.00;48.90;;;;;;5097790;28;20032;-67
2021/05/12 07:20:30;;;;;;;6.95;3.00;;;16.00;50.00;;;;;;5095547;28;20020;-67
2021/05/12 07:23:04;;;;;;;3.95;2.30;;;16.00;50.50;;;;;;5114535;28;20556;-67
2021/05/12 07:25:32;;;;;;;7.38;2.70;;;15.90;48.70;;;;;;5117262;28;20465;-68
2021/05/12 07:27:59;;;;;;;3.72;2.08;;;15.80;50.90;;;;;;5116141;28;20030;-67
2021/05/12 07:30:26;;;;;;;4.25;2.47;;;15.70;52.30;;;;;;5100764;28;20032;-68
2021/05/12 07:32:53;;;;;;;2.95;2.38;;;15.60;52.80;;;;;;5096494;28;20020;-67
2021/05/12 07:35:19;;;;;;;3.92;1.95;;;15.50;52.40;;;;;;5113047;28;20035;-68
2021/05/12 07:37:46;;;;;;;8.50;2.88;;;15.50;51.50;;;;;;5109596;28;20024;-68
2021/05/12 07:40:14;;;;;;;6.50;2.38;;;15.50;51.90;;;;;;5098047;28;20061;-68
2021/05/12 07:42:42;;;;;;;7.13;2.53;;;15.40;51.90;;;;;;5111136;28;20050;-68
2021/05/12 07:45:11;;;;;;;9.15;2.00;;;15.40;50.40;;;;;;5105512;28;20031;-68
2021/05/12 07:47:38;;;;;;;9.73;2.95;;;15.40;52.20;;;;;;5083106;28;20032;-68
2021/05/12 07:50:10;;;;;;;8.80;3.50;;;15.30;51.90;;;;;;5091407;28;20525;-68
2021/05/12 07:52:38;;;;;;;7.20;3.33;;;15.30;52.40;;;;;;5108194;28;20107;-68
2021/05/12 07:55:05;;;;;;;13.50;3.05;;;15.30;52.30;;;;;;5097382;28;20093;-68
2021/05/12 07:57:32;;;;;;;8.50;2.22;;;15.20;52.30;;;;;;5100618;28;20011;-67
2021/05/12 07:59:58;;;;;;;4.25;2.80;;;15.20;51.10;;;;;;5103770;28;20354;-67
2021/05/12 08:02:25;;;;;;;6.32;2.92;;;15.10;52.10;;;;;;5112606;28;20434;-67
2021/05/12 08:04:51;;;;;;;6.75;4.35;;;15.10;50.50;;;;;;5105309;28;20391;-67
2021/05/12 08:07:18;;;;;;;9.40;2.17;;;15.10;51.60;;;;;;5112334;28;20020;-67
2021/05/12 08:09:44;;;;;;;7.03;2.72;;;15.10;50.80;;;;;;5099660;28;20122;-68
2021/05/12 08:12:11;;;;;;;8.00;2.65;;;15.00;49.30;;;;;;5108021;28;20477;-68
2021/05/12 08:14:37;;;;;;;8.07;3.08;;;15.00;51.90;;;;;;5106990;28;20400;-67
2021/05/12 08:17:03;;;;;;;5.65;2.45;;;14.90;51.60;;;;;;5108299;28;20016;-67
2021/05/12 08:19:30;;;;;;;8.10;2.72;;;14.90;50.60;;;;;;5089699;28;20036;-67
2021/05/12 08:21:56;;;;;;;8.05;2.00;;;14.90;49.30;;;;;;5103165;28;20340;-68
2021/05/12 08:24:23;;;;;;;4.30;2.20;;;14.80;51.10;;;;;;5111790;28;20036;-67
2021/05/12 08:26:49;;;;;;;7.13;2.42;;;14.80;52.10;;;;;;5100620;28;20400;-67
2021/05/12 08:29:17;;;;;;;8.73;2.22;;;14.70;52.40;;;;;;5085874;28;20359;-67
2021/05/12 08:31:45;;;;;;;4.82;3.28;;;14.70;52.50;;;;;;5106157;28;20034;-67
2021/05/12 08:34:12;;;;;;;6.38;1.85;;;14.70;51.60;;;;;;5106327;28;20024;-66
2021/05/12 08:36:39;;;;;;;7.88;2.70;;;14.60;51.40;;;;;;5096107;28;20358;-66
2021/05/12 08:39:07;;;;;;;7.63;2.42;;;14.60;52.50;;;;;;5107960;28;20020;-66
2021/05/12 08:41:35;;;;;;;8.13;3.10;;;14.50;49.90;;;;;;5108575;28;20024;-68
2021/05/12 08:44:16;;;;;;;4.85;3.03;;;14.50;50.70;;;;;;5081646;28;20166;-67
2021/05/12 08:46:44;;;;;;;10.40;2.08;;;14.50;50.90;;;;;;5091330;28;20073;-69
2021/05/12 08:49:10;;;;;;;7.70;2.58;;;14.50;50.90;;;;;;5070054;28;20028;-68
2021/05/12 08:51:38;;;;;;;7.03;2.90;;;14.50;51.90;;;;;;5107357;28;20084;-69
2021/05/12 08:54:06;;;;;;;7.68;3.05;;;14.50;52.10;;;;;;5100941;28;20496;-68
2021/05/12 08:56:33;;;;;;;3.35;2.00;;;14.40;52.70;;;;;;5110724;28;20028;-68
2021/05/12 08:59:01;;;;;;;8.27;2.40;;;14.30;52.60;;;;;;5090730;28;20519;-67
2021/05/12 09:01:28;;;;;;;10.80;2.83;;;14.10;53.70;;;;;;5095619;28;20027;-67
2021/05/12 09:03:55;;;;;;;8.60;2.13;;;14.00;54.30;;;;;;5100514;28;20091;-68
2021/05/12 09:06:22;;;;;;;4.68;2.97;;;14.10;53.90;;;;;;5095652;28;20031;-68
2021/05/12 09:08:50;;;;;;;4.43;2.38;;;14.10;50.40;;;;;;5107270;28;20082;-68
2021/05/12 09:11:16;;;;;;;3.35;2.20;;;14.20;53.60;;;;;;5103284;28;20444;-68
2021/05/12 09:13:48;;;;;;;5.53;2.85;;;14.10;50.60;;;;;;5107453;28;20024;-68
2021/05/12 09:16:27;;;;;;;3.00;2.10;;;14.10;53.30;;;;;;5099693;28;20025;-69
2021/05/12 09:19:13;;;;;;;4.03;1.90;;;13.90;54.30;;;;;;5108817;28;20016;-68
2021/05/12 09:21:53;;;;;;;6.20;2.42;;;13.90;51.70;;;;;;5108279;28;20026;-68
2021/05/12 09:24:28;;;;;;;3.78;2.15;;;13.90;50.70;;;;;;5105359;28;20029;-68
2021/05/12 09:27:00;;;;;;;2.70;2.50;;;13.90;52.30;;;;;;5099773;28;20027;-68
2021/05/12 09:29:29;;;;;;;6.65;2.55;;;13.90;53.50;;;;;;5095613;28;20034;-68
2021/05/12 09:32:04;;;;;;;4.93;3.50;;;13.90;50.70;;;;;;5102763;28;20020;-68
2021/05/12 09:35:05;;;;;;;10.65;3.90;;;13.80;53.80;;;;;;5108589;28;20031;-68
2021/05/12 09:37:32;;;;;;;4.97;2.15;;;13.80;52.00;;;;;;5086541;28;20114;-68
2021/05/12 09:40:02;;;;;;;3.38;2.28;;;13.80;53.70;;;;;;5115841;28;20016;-68
2021/05/12 09:42:28;;;;;;;3.70;1.80;;;13.80;51.10;;;;;;5101060;28;20024;-68
2021/05/12 09:45:19;;;;;;;5.63;2.35;;;13.80;51.90;;;;;;5095099;28;20111;-68
2021/05/12 09:47:49;;;;;;;11.00;2.40;;;13.80;51.50;;;;;;5090138;28;20040;-68
2021/05/12 09:50:22;;;;;;;3.33;1.80;;;13.80;52.80;;;;;;5103211;28;20342;-68
2021/05/12 09:53:13;;;;;;;6.35;2.88;;;13.80;53.70;;;;;;5109744;28;20442;-68
2021/05/12 09:55:42;;;;;;;3.92;1.77;;;13.60;52.40;;;;;;5084469;28;20027;-68
2021/05/12 09:58:11;;;;;;;5.55;2.30;;;13.60;54.40;;;;;;5115404;28;20027;-69
2021/05/12 10:00:42;;;;;;;8.43;3.17;;;13.60;54.10;;;;;;5104019;28;20036;-68
2021/05/12 10:03:10;;;;;;;9.98;1.73;;;13.70;52.50;;;;;;5100781;28;20018;-69
2021/05/12 10:06:09;;;;;;;10.48;2.58;;;13.70;53.50;;;;;;5088901;28;20118;-68
2021/05/12 10:08:37;;;;;;;5.20;2.72;;;13.70;51.70;;;;;;5034128;28;20051;-68
2021/05/12 10:11:04;;;;;;;3.97;1.83;;;13.80;52.00;;;;;;5103759;28;20113;-68
2021/05/12 10:13:32;;;;;;;11.20;2.22;;;13.70;52.70;;;;;;5096947;28;20024;-68
2021/05/12 10:16:00;;;;;;;4.30;1.92;;;13.80;52.90;;;;;;5098401;28;20024;-68
2021/05/12 10:18:27;;;;;;;5.90;2.17;;;13.70;54.60;;;;;;5113455;28;20121;-68
2021/05/12 10:20:57;;;;;;;3.83;2.95;;;13.60;55.20;;;;;;5111818;28;20019;-69
2021/05/12 10:23:24;;;;;;;3.50;1.60;;;13.50;55.60;;;;;;5110639;28;20124;-69
2021/05/12 10:25:51;;;;;;;6.20;1.77;;;13.50;54.30;;;;;;5101627;28;20034;-68
2021/05/12 10:28:18;;;;;;;6.05;2.35;;;13.60;52.40;;;;;;5107138;28;20487;-69
2021/05/12 10:30:51;;;;;;;4.90;2.15;;;13.60;52.10;;;;;;5094765;28;20028;-68
2021/05/12 10:33:47;;;;;;;3.03;2.13;;;13.50;54.10;;;;;;5103002;28;20029;-68
2021/05/12 10:36:14;;;;;;;2.67;1.60;;;13.40;52.90;;;;;;5112206;28;20027;-68
2021/05/12 10:38:46;;;;;;;2.40;1.40;;;13.40;54.80;;;;;;5087416;28;20024;-68
2021/05/12 10:41:30;;;;;;;;;;;13.40;54.40;;;;;;5102466;28;20080;-68
2021/05/12 10:43:57;;;;;;;1.60;1.48;;;13.40;51.40;;;;;;5094542;28;19919;-68
2021/05/12 10:46:29;;;;;;;5.43;1.77;;;13.30;54.20;;;;;;5079709;28;20031;-68
2021/05/12 10:48:56;;;;;;;10.32;3.08;;;13.40;52.50;;;;;;5096961;28;20023;-68
2021/05/12 10:51:23;;;;;;;8.20;2.63;;;13.40;54.10;;;;;;5109283;28;20032;-68
2021/05/12 10:53:54;;;;;;;5.60;2.58;;;13.30;53.20;;;;;;5104868;28;20020;-68
2021/05/12 10:56:23;;;;;;;8.30;1.60;;;13.30;52.20;;;;;;5108602;28;20020;-68
2021/05/12 10:58:58;;;;;;;4.88;2.20;;;13.20;55.50;;;;;;5090707;28;20038;-68
2021/05/12 11:01:27;;;;;;;2.17;1.98;;;13.10;56.30;;;;;;5075511;28;20031;-68
2021/05/12 11:03:53;;;;;;;6.55;2.45;;;13.10;53.30;;;;;;5098229;28;20016;-68
2021/05/12 11:06:46;;;;;;;3.20;1.40;;;13.10;52.50;;;;;;5110324;28;20024;-68
2021/05/12 11:09:22;;;;;;;3.83;2.20;;;13.00;55.30;;;;;;5088616;28;20048;-68
2021/05/12 11:11:48;;;;;;;11.40;2.95;;;13.00;54.90;;;;;;5098473;28;20035;-68
2021/05/12 11:14:36;;;;;;;2.80;2.05;;;12.90;55.60;;;;;;5076067;28;20115;-68
2021/05/12 11:17:12;;;;;;;6.03;2.40;;;12.80;53.50;;;;;;5104006;28;20404;-68
2021/05/12 11:19:52;;;;;;;6.30;3.15;;;12.90;52.80;;;;;;5106135;28;20020;-68
2021/05/12 11:22:44;;;;;;;11.15;4.43;;;12.90;53.60;;;;;;5093631;28;20059;-68
2021/05/12 11:33:32;;;;;;;;;;;13.00;56.60;;;;;;5112038;28;20039;-68
2021/05/12 11:36:08;;;;;;;6.03;3.58;;;12.90;55.00;;;;;;5109609;28;19917;-68
2021/05/12 11:38:36;;;;;;;5.85;2.97;;;13.00;56.30;;;;;;5090365;28;20357;-69
2021/05/12 11:41:16;;;;;;;8.10;2.65;;;12.90;57.00;;;;;;5110102;28;20077;-68
2021/05/12 11:43:56;;;;;;;3.97;2.40;;;13.00;58.70;;;;;;5084801;28;20016;-69
2021/05/12 11:46:30;;;;;;;16.83;3.92;;;13.00;58.20;;;;;;5098598;28;20107;-68
2021/05/12 11:49:04;;;;;;;7.03;2.33;;;13.00;57.90;;;;;;5101733;28;20115;-68
2021/05/12 11:51:48;;;;;;;5.70;3.35;;;13.00;57.50;;;;;;5103601;28;20519;-68
2021/05/12 11:54:21;;;;;;;4.82;2.88;;;12.80;57.00;;;;;;5097093;28;20062;-68
2021/05/12 11:56:55;;;;;;;8.77;3.42;;;12.80;56.90;;;;;;5108847;28;20027;-69
2021/05/12 11:59:27;;;;;;;9.55;4.03;;;12.80;57.10;;;;;;5108796;28;20121;-68
2021/05/12 12:02:14;;;;;;;6.00;4.25;;;12.70;58.20;;;;;;5111048;28;20034;-69
2021/05/12 12:07:17;;;;;;;5.22;2.58;;;12.60;55.80;;;;;;5109920;28;20035;-68
2021/05/12 12:09:44;;;;;;;5.88;2.40;;;12.60;57.30;;;;;;5109267;28;20024;-68
2021/05/12 12:12:11;;;;;;;4.82;2.70;;;12.60;55.00;;;;;;5107427;28;20035;-68
2021/05/12 12:14:38;;;;;;;5.00;3.15;;;12.70;56.50;;;;;;5104862;28;20027;-68
2021/05/12 12:17:12;;;;;;;7.85;3.38;;;12.70;55.80;;;;;;5116374;28;20028;-68
2021/05/12 12:19:38;;;;;;;12.77;3.65;;;12.60;57.20;;;;;;5114028;28;20028;-68
2021/05/12 12:22:05;;;;;;;5.93;2.95;;;12.70;55.50;;;;;;5104265;28;20016;-69
2021/05/12 12:24:32;;;;;;;4.80;2.83;;;12.60;57.90;;;;;;5108389;28;20020;-68
2021/05/12 12:27:03;;;;;;;7.22;3.38;;;12.70;55.50;;;;;;5113744;28;20098;-68
2021/05/12 12:29:34;;;;;;;8.05;2.92;;;12.80;56.30;;;;;;5089461;28;20346;-68
2021/05/12 12:32:07;;;;;;;4.45;2.15;;;12.90;56.30;;;;;;5100551;28;20027;-68
2021/05/12 12:34:37;;;;;;;3.75;2.65;;;12.90;57.30;;;;;;5115280;28;20043;-68
2021/05/12 12:37:12;;;;;;;4.30;2.40;;;13.00;56.90;;;;;;5105702;28;20016;-68
2021/05/12 12:39:51;;;;;;;3.00;2.28;;;13.00;57.40;;;;;;5096637;28;20051;-68
2021/05/12 12:42:24;;;;;;;6.85;2.72;;;13.00;57.90;;;;;;5108016;28;20016;-69
2021/05/12 12:44:51;;;;;;;4.72;2.35;;;12.90;59.80;;;;;;5106916;28;20450;-68
2021/05/12 12:47:20;;;;;;;3.55;2.63;;;13.00;58.80;;;;;;5109789;28;20098;-68
2021/05/12 12:49:53;;;;;;;4.32;2.60;;;13.10;57.80;;;;;;5115505;28;20043;-68
2021/05/12 12:52:30;;;;;;;6.07;2.35;;;13.20;57.00;;;;;;5108238;28;20103;-69
2021/05/12 12:55:14;;;;;;;4.93;1.92;;;13.20;57.10;;;;;;5095479;28;20020;-68
2021/05/12 12:57:49;;;;;;;7.57;2.35;;;13.30;55.70;;;;;;5090896;28;20027;-68
2021/05/12 13:00:29;;;;;;;6.82;2.00;;;13.50;56.80;;;;;;5077770;28;20020;-68
2021/05/12 13:03:21;;;;;;;6.40;2.75;;;13.40;58.10;;;;;;5076084;28;20024;-68
2021/05/12 13:05:53;;;;;;;2.17;1.80;;;13.80;58.70;;;;;;5116241;28;20027;-69